createdAt,value
2023-10-04T00:01:55.973Z,17.83
2023-10-04T00:05:57.791Z,16.99
2023-10-04T00:10:05.231Z,16.76
2023-10-04T00:14:08.312Z,17.29
2023-10-04T00:18:13.014Z,16.65
2023-10-04T00:22:15.122Z,17.66
2023-10-04T00:26:17.307Z,17.19
2023-10-04T00:30:20.844Z,17.42
2023-10-04T00:34:23.243Z,17.45
2023-10-04T00:38:27.814Z,16.63
2023-10-04T00:42:29.768Z,17.54
2023-10-04T00:46:35.237Z,17.36
2023-10-04T00:50:37.987Z,15.65
2023-10-04T00:54:41.452Z,16.91
2023-10-04T00:58:44.742Z,17.10
2023-10-04T01:02:47.344Z,16.14
2023-10-04T01:06:49.893Z,16.89
2023-10-04T01:10:55.698Z,15.66
2023-10-04T01:15:12.048Z,15.50
2023-10-04T01:19:17.015Z,16.61
2023-10-04T01:23:19.885Z,16.67
2023-10-04T01:27:21.677Z,16.58
2023-10-04T01:31:23.835Z,16.51
2023-10-04T01:35:26.086Z,16.00
2023-10-04T01:39:31.523Z,16.73
2023-10-04T01:43:33.805Z,17.44
2023-10-04T01:47:35.795Z,16.20
2023-10-04T01:51:37.741Z,16.61
2023-10-04T01:55:41.191Z,16.31
2023-10-04T01:59:43.038Z,16.77
2023-10-04T02:03:45.818Z,16.41
2023-10-04T02:07:48.239Z,16.10
2023-10-04T02:11:50.109Z,16.52
2023-10-04T02:15:53.109Z,16.47
2023-10-04T02:19:55.196Z,16.39
2023-10-04T02:23:57.684Z,16.15
2023-10-04T02:28:07.443Z,15.29
2023-10-04T02:32:10.548Z,15.70
2023-10-04T02:36:12.762Z,15.62
2023-10-04T02:40:18.883Z,16.05
2023-10-04T02:44:20.861Z,16.39
2023-10-04T02:48:24.586Z,15.45
2023-10-04T02:52:28.551Z,16.18
2023-10-04T02:56:31.025Z,16.74
2023-10-04T03:00:34.379Z,16.08
2023-10-04T03:04:36.813Z,15.33
2023-10-04T03:08:39.109Z,15.63
2023-10-04T03:12:42.462Z,15.18
2023-10-04T03:16:44.833Z,15.15
2023-10-04T03:20:51.582Z,15.34
2023-10-04T03:24:54.856Z,15.12
2023-10-04T03:28:57.763Z,15.09
2023-10-04T03:33:04.036Z,14.30
2023-10-04T03:37:15.215Z,13.62
2023-10-04T03:41:19.666Z,14.69
2023-10-04T03:45:24.205Z,14.83
2023-10-04T03:49:28.131Z,14.89
2023-10-04T03:53:30.571Z,14.24
2023-10-04T03:57:34.922Z,13.51
2023-10-04T04:01:38.857Z,13.49
2023-10-04T04:05:43.457Z,13.85
2023-10-04T04:09:45.551Z,14.51
2023-10-04T04:13:47.554Z,14.28
2023-10-04T04:17:49.983Z,14.69
2023-10-04T04:21:52.896Z,13.98
2023-10-04T04:25:54.941Z,14.87
2023-10-04T04:30:04.808Z,13.71
2023-10-04T04:34:10.560Z,14.27
2023-10-04T04:38:26.610Z,14.26
2023-10-04T04:42:36.585Z,14.13
2023-10-04T04:46:41.410Z,14.58
2023-10-04T04:50:44.014Z,14.88
2023-10-04T04:54:45.849Z,14.26
2023-10-04T04:58:49.285Z,14.01
2023-10-04T05:02:52.393Z,14.20
2023-10-04T05:06:54.494Z,15.00
2023-10-04T05:11:00.633Z,13.67
2023-10-04T05:15:02.967Z,14.03
2023-10-04T05:19:05.800Z,14.71
2023-10-04T05:23:10.267Z,15.30
2023-10-04T05:27:12.350Z,14.26
2023-10-04T05:31:13.990Z,14.23
2023-10-04T05:35:16.299Z,13.86
2023-10-04T05:39:18.887Z,14.65
2023-10-04T05:43:20.934Z,14.05
2023-10-04T05:47:24.144Z,14.88
2023-10-04T05:51:26.599Z,14.91
2023-10-04T05:55:28.879Z,14.83
2023-10-04T05:59:33.172Z,14.94
2023-10-04T06:03:36.358Z,14.63
2023-10-04T06:07:38.572Z,13.75
2023-10-04T06:11:40.697Z,14.04
2023-10-04T06:15:50.868Z,14.44
2023-10-04T06:19:55.566Z,14.34
2023-10-04T06:23:57.647Z,14.80
2023-10-04T06:28:01.042Z,14.86
2023-10-04T06:32:02.753Z,15.01
2023-10-04T06:36:04.923Z,15.56
2023-10-04T06:40:15.417Z,15.31
2023-10-04T06:44:17.175Z,14.32
2023-10-04T06:48:19.328Z,14.42
2023-10-04T06:52:21.752Z,16.11
2023-10-04T06:56:25.425Z,15.10
2023-10-04T07:00:32.629Z,15.12
2023-10-04T07:04:34.921Z,15.51
2023-10-04T07:08:37.107Z,15.11
2023-10-04T07:12:39.757Z,15.31
2023-10-04T07:16:41.627Z,15.11
2023-10-04T07:20:43.760Z,15.83
2023-10-04T07:24:45.778Z,15.69
2023-10-04T07:28:47.620Z,15.07
2023-10-04T07:32:49.920Z,14.76
2023-10-04T07:36:52.649Z,15.57
2023-10-04T07:40:54.805Z,16.03
2023-10-04T07:44:57.052Z,15.28
2023-10-04T07:49:01.601Z,15.30
2023-10-04T07:53:06.542Z,14.85
2023-10-04T07:57:11.082Z,14.89
2023-10-04T08:01:18.323Z,15.37
2023-10-04T08:05:26.661Z,15.75
2023-10-04T08:09:29.005Z,16.78
2023-10-04T08:13:32.058Z,15.82
2023-10-04T08:17:34.552Z,16.83
2023-10-04T08:21:36.394Z,16.58
2023-10-04T08:25:38.439Z,16.54
2023-10-04T08:29:40.449Z,15.43
2023-10-04T08:33:45.109Z,15.62
2023-10-04T08:37:49.827Z,15.09
2023-10-04T08:41:51.767Z,15.93
2023-10-04T08:45:56.045Z,14.66
2023-10-04T08:50:01.867Z,14.94
2023-10-04T08:54:22.906Z,16.14
2023-10-04T08:58:25.972Z,15.89
2023-10-04T09:02:27.881Z,15.40
2023-10-04T09:06:29.957Z,15.24
2023-10-04T09:10:35.341Z,15.47
2023-10-04T09:14:41.239Z,15.81
2023-10-04T09:18:43.762Z,15.02
2023-10-04T09:22:45.582Z,14.43
2023-10-04T09:26:50.467Z,14.72
2023-10-04T09:31:08.761Z,14.98
2023-10-04T09:35:11.408Z,15.81
2023-10-04T09:39:15.183Z,15.77
2023-10-04T09:43:16.938Z,15.72
2023-10-04T09:47:19.106Z,16.51
2023-10-04T09:51:22.227Z,15.56
2023-10-04T09:55:26.979Z,16.45
2023-10-04T09:59:29.801Z,16.50
2023-10-04T10:03:48.725Z,16.00
2023-10-04T10:07:52.242Z,15.67
2023-10-04T10:11:55.040Z,16.43
2023-10-04T10:15:57.851Z,16.08
2023-10-04T10:20:00.866Z,16.22
2023-10-04T10:24:05.722Z,15.55
2023-10-04T10:28:21.402Z,15.68
2023-10-04T10:32:24.730Z,14.98
2023-10-04T10:36:32.935Z,16.49
2023-10-04T10:40:36.573Z,16.58
2023-10-04T10:44:40.385Z,16.63
2023-10-04T10:48:42.751Z,16.56
2023-10-04T10:52:44.717Z,16.05
2023-10-04T10:56:46.707Z,16.87
2023-10-04T11:00:48.650Z,16.55
2023-10-04T11:04:52.448Z,15.94
2023-10-04T11:08:56.805Z,14.77
2023-10-04T11:13:01.046Z,15.90
2023-10-04T11:17:05.301Z,16.62
2023-10-04T11:21:07.864Z,16.83
2023-10-04T11:25:10.197Z,15.82
2023-10-04T11:29:12.173Z,16.73
2023-10-04T11:33:14.913Z,15.98
2023-10-04T11:37:17.831Z,16.34
2023-10-04T11:41:23.167Z,16.11
2023-10-04T11:45:27.842Z,16.50
2023-10-04T11:49:33.617Z,16.66
2023-10-04T11:53:39.893Z,16.32
2023-10-04T11:57:42.599Z,15.93
2023-10-04T12:01:48.126Z,15.39
2023-10-04T12:05:50.253Z,15.47
2023-10-04T12:09:52.923Z,17.02
2023-10-04T12:13:56.645Z,15.96
2023-10-04T12:17:58.978Z,17.04
2023-10-04T12:22:09.909Z,16.97
2023-10-04T12:26:12.116Z,16.60
2023-10-04T12:30:19.032Z,17.00
2023-10-04T12:34:24.112Z,16.58
2023-10-04T12:38:26.360Z,16.37
2023-10-04T12:42:28.636Z,15.58
2023-10-04T12:46:31.131Z,16.54
2023-10-04T12:50:36.185Z,16.99
2023-10-04T12:54:38.833Z,17.11
2023-10-04T12:58:41.264Z,17.24
2023-10-04T13:02:46.044Z,16.90
2023-10-04T13:06:48.278Z,15.75
2023-10-04T13:10:50.403Z,15.90
2023-10-04T13:14:56.625Z,16.65
2023-10-04T13:18:59.047Z,16.32
2023-10-04T13:23:01.865Z,16.70
2023-10-04T13:27:05.160Z,16.58
2023-10-04T13:31:07.966Z,16.77
2023-10-04T13:35:10.131Z,15.72
2023-10-04T13:39:12.195Z,17.28
2023-10-04T13:43:14.936Z,15.46
2023-10-04T13:47:17.472Z,16.61
2023-10-04T13:51:23.463Z,17.41
2023-10-04T13:55:27.093Z,16.45
2023-10-04T13:59:30.369Z,16.36
2023-10-04T14:03:36.804Z,16.13
2023-10-04T14:07:40.357Z,16.18
2023-10-04T14:11:42.390Z,15.19
2023-10-04T14:15:44.435Z,15.97
2023-10-04T14:19:48.426Z,15.88
2023-10-04T14:23:51.651Z,16.37
2023-10-04T14:27:54.821Z,15.90
2023-10-04T14:31:58.226Z,16.21
2023-10-04T14:36:00.598Z,16.51
2023-10-04T14:40:05.219Z,17.04
2023-10-04T14:44:07.364Z,16.49
2023-10-04T14:48:09.430Z,16.10
2023-10-04T14:52:11.761Z,15.97
2023-10-04T14:56:13.976Z,16.60
2023-10-04T15:00:21.429Z,16.90
2023-10-04T15:04:25.026Z,16.93
2023-10-04T15:08:27.925Z,16.01
2023-10-04T15:12:33.250Z,16.22
2023-10-04T15:16:35.447Z,15.64
2023-10-04T15:20:37.646Z,16.36
2023-10-04T15:24:41.032Z,16.26
2023-10-04T15:28:45.948Z,16.41
2023-10-04T15:32:52.938Z,16.15
2023-10-04T15:36:55.184Z,16.50
2023-10-04T15:40:57.248Z,15.72
2023-10-04T15:44:59.426Z,16.62
2023-10-04T15:49:02.021Z,16.75
2023-10-04T15:56:53.531Z,18.83
2023-10-04T16:01:36.564Z,13.57
2023-10-04T16:08:23.669Z,14.98
2023-10-04T16:14:32.504Z,14.68
2023-10-04T16:22:09.287Z,13.07
2023-10-04T16:27:35.409Z,14.09
2023-10-04T16:31:38.603Z,14.89
2023-10-04T16:35:40.880Z,14.13
2023-10-04T16:39:43.828Z,14.38
2023-10-04T16:43:45.861Z,14.04
2023-10-04T16:47:49.279Z,13.98
2023-10-04T16:51:52.022Z,14.44
2023-10-04T16:55:54.108Z,13.85
2023-10-04T16:59:56.210Z,14.14
2023-10-04T17:08:02.322Z,14.43
2023-10-04T17:12:05.541Z,12.93
2023-10-04T17:16:07.788Z,13.26
2023-10-04T17:20:10.183Z,13.22
2023-10-04T17:24:12.341Z,13.50
2023-10-04T17:28:16.082Z,13.75
2023-10-04T17:32:19.295Z,13.32
2023-10-04T17:36:22.047Z,13.74
2023-10-04T17:40:24.138Z,13.00
2023-10-04T17:44:29.009Z,12.96
2023-10-04T17:48:31.067Z,13.60
2023-10-04T17:52:33.045Z,13.09
2023-10-04T17:56:35.365Z,13.14
2023-10-04T18:00:37.714Z,12.91
2023-10-04T18:04:39.984Z,13.13
2023-10-04T18:08:41.984Z,13.09
2023-10-04T18:12:45.709Z,13.09
2023-10-04T18:16:47.796Z,12.53
2023-10-04T18:20:50.049Z,13.28
2023-10-04T18:24:52.145Z,12.77
2023-10-04T18:28:55.244Z,12.48
2023-10-04T18:32:57.771Z,13.20
2023-10-04T18:37:01.013Z,13.26
2023-10-04T18:41:03.175Z,12.74
2023-10-04T18:45:07.536Z,12.98
2023-10-04T18:49:10.779Z,12.45
2023-10-04T18:53:12.986Z,11.70
2023-10-04T18:57:15.301Z,12.38
2023-10-04T19:01:17.808Z,11.95
2023-10-04T19:05:19.924Z,13.07
2023-10-04T19:09:22.236Z,13.33
2023-10-04T19:13:24.421Z,11.90
2023-10-04T19:17:26.749Z,12.18
2023-10-04T19:21:28.934Z,12.40
2023-10-04T19:25:31.128Z,12.50
2023-10-04T19:29:33.226Z,11.94
2023-10-04T19:33:36.244Z,12.76
2023-10-04T19:37:38.306Z,12.40
2023-10-04T19:41:40.928Z,11.84
2023-10-04T19:45:44.705Z,12.11
2023-10-04T19:49:47.274Z,12.14
2023-10-04T19:53:52.556Z,12.22
2023-10-04T19:57:55.074Z,12.80
2023-10-04T20:01:57.213Z,12.44
2023-10-04T20:06:01.702Z,12.79
2023-10-04T20:10:07.363Z,12.70
2023-10-04T20:14:09.874Z,12.62
2023-10-04T20:18:17.241Z,12.84
2023-10-04T20:22:20.362Z,12.40
2023-10-04T20:26:23.834Z,12.44
2023-10-04T20:30:28.809Z,12.12
2023-10-04T20:34:30.903Z,11.59
2023-10-04T20:38:33.045Z,11.56
2023-10-04T20:42:36.244Z,11.58
2023-10-04T20:46:38.612Z,11.40
2023-10-04T20:50:42.453Z,11.68
2023-10-04T20:54:44.655Z,12.44
2023-10-04T20:58:46.809Z,12.19
2023-10-04T21:02:49.270Z,12.17
2023-10-04T21:06:51.490Z,11.37
2023-10-04T21:10:54.104Z,11.17
2023-10-04T21:14:57.056Z,11.16
2023-10-04T21:18:59.127Z,12.30
2023-10-04T21:23:01.302Z,12.76
2023-10-04T21:27:03.770Z,12.38
2023-10-04T21:31:11.800Z,12.51
2023-10-04T21:35:21.856Z,12.22
2023-10-04T21:39:26.722Z,12.17
2023-10-04T21:43:30.688Z,11.14
2023-10-04T21:47:39.895Z,12.06
2023-10-04T21:52:05.773Z,11.28
2023-10-04T21:56:07.973Z,11.60
2023-10-04T22:00:23.303Z,11.90
2023-10-04T22:04:26.887Z,11.30
2023-10-04T22:08:31.170Z,11.27
2023-10-04T22:18:59.003Z,11.16
2023-10-04T22:23:01.054Z,12.09
2023-10-04T22:27:03.233Z,12.05
2023-10-04T22:31:05.732Z,12.10
2023-10-04T22:35:11.520Z,11.57
2023-10-04T22:39:16.006Z,11.40
2023-10-04T22:43:21.798Z,11.69
2023-10-04T22:47:24.420Z,11.09
2023-10-04T22:51:26.758Z,10.70
2023-10-04T22:55:29.035Z,10.49
2023-10-04T22:59:31.105Z,10.38
2023-10-04T23:03:42.304Z,10.27
2023-10-04T23:07:52.934Z,10.47
2023-10-04T23:11:54.983Z,10.42
2023-10-04T23:16:00.483Z,9.79
2023-10-04T23:20:02.810Z,10.34
2023-10-04T23:24:17.222Z,10.09
2023-10-04T23:28:19.372Z,10.12
2023-10-04T23:32:21.452Z,10.07
2023-10-04T23:36:26.439Z,9.76
2023-10-04T23:40:31.080Z,9.22
2023-10-04T23:44:32.766Z,9.56
2023-10-04T23:48:35.224Z,9.65
2023-10-04T23:52:36.949Z,9.40
2023-10-04T23:57:01.411Z,9.79
